createdAt,value
2023-03-17T00:05:04.145Z,5.78
2023-03-17T00:15:08.100Z,5.40
2023-03-17T00:25:09.340Z,5.73
2023-03-17T00:35:11.537Z,4.95
2023-03-17T00:45:12.841Z,5.43
2023-03-17T00:55:14.535Z,5.03
2023-03-17T01:05:16.233Z,5.38
2023-03-17T01:15:17.674Z,5.45
2023-03-17T01:25:18.954Z,5.88
2023-03-17T01:35:20.303Z,6.18
2023-03-17T01:45:21.564Z,6.10
2023-03-17T01:55:23.022Z,5.50
2023-03-17T02:05:24.315Z,5.60
2023-03-17T02:15:25.750Z,6.22
2023-03-17T02:25:27.059Z,5.35
2023-03-17T02:35:28.316Z,5.78
2023-03-17T02:45:29.593Z,5.57
2023-03-17T02:55:32.455Z,6.40
2023-03-17T03:05:33.704Z,7.13
2023-03-17T03:15:35.941Z,6.88
2023-03-17T03:25:37.963Z,6.82
2023-03-17T03:35:40.056Z,7.80
2023-03-17T03:45:41.474Z,8.68
2023-03-17T03:55:42.673Z,8.32
2023-03-17T04:05:43.889Z,7.90
2023-03-17T04:15:45.417Z,7.78
2023-03-17T04:25:46.900Z,8.57
2023-03-17T04:35:48.234Z,7.70
2023-03-17T04:45:49.632Z,8.40
2023-03-17T04:55:51.510Z,8.30
2023-03-17T05:05:52.742Z,8.23
2023-03-17T05:15:54.135Z,8.13
2023-03-17T05:25:55.421Z,8.57
2023-03-17T05:35:57.355Z,8.23
2023-03-17T05:45:58.665Z,8.60
2023-03-17T05:55:59.933Z,8.77
2023-03-17T06:06:01.786Z,8.75
2023-03-17T06:16:03.406Z,9.65
2023-03-17T06:26:04.656Z,8.52
2023-03-17T06:36:06.449Z,8.75
2023-03-17T06:46:08.325Z,9.98
2023-03-17T06:56:20.151Z,12.45
2023-03-17T07:06:31.010Z,14.50
2023-03-17T07:16:33.102Z,14.60
2023-03-17T07:26:34.417Z,14.15
2023-03-17T07:36:35.859Z,15.07
2023-03-17T07:46:38.126Z,13.73
2023-03-17T07:56:39.350Z,9.88
2023-03-17T08:06:43.469Z,9.20
2023-03-17T08:16:46.839Z,9.33
2023-03-17T08:26:51.150Z,7.18
2023-03-17T08:36:54.658Z,9.00
2023-03-17T08:46:56.927Z,9.38
2023-03-17T08:56:58.574Z,8.65
2023-03-17T09:07:03.714Z,7.57
2023-03-17T09:17:08.167Z,7.20
2023-03-17T09:27:11.747Z,6.30
2023-03-17T09:37:13.709Z,6.63
2023-03-17T09:47:14.987Z,5.63
2023-03-17T09:57:19.417Z,5.05
2023-03-17T10:07:20.737Z,4.43
2023-03-17T10:17:22.238Z,4.68
2023-03-17T10:27:23.537Z,5.25
2023-03-17T10:37:24.943Z,4.30
2023-03-17T10:47:26.222Z,4.25
2023-03-17T10:57:28.078Z,4.45
2023-03-17T11:07:32.581Z,4.70
2023-03-17T11:17:33.883Z,4.22
2023-03-17T11:27:35.145Z,4.65
2023-03-17T11:37:36.386Z,4.32
2023-03-17T11:47:37.659Z,3.97
2023-03-17T11:57:38.861Z,4.05
2023-03-17T12:07:40.189Z,4.13
2023-03-17T12:17:41.723Z,4.18
2023-03-17T12:27:43.010Z,3.92
2023-03-17T12:37:52.760Z,4.53
2023-03-17T12:47:54.026Z,4.15
2023-03-17T12:57:57.668Z,3.40
2023-03-17T13:07:58.998Z,4.05
2023-03-17T13:18:03.453Z,3.78
2023-03-17T13:28:05.549Z,3.92
2023-03-17T13:38:06.931Z,4.68
2023-03-17T13:48:08.166Z,3.88
2023-03-17T13:58:11.635Z,3.42
2023-03-17T14:08:15.410Z,2.93
2023-03-17T14:18:16.752Z,3.10
2023-03-17T14:28:18.044Z,3.10
2023-03-17T14:38:20.119Z,3.03
2023-03-17T14:48:21.579Z,3.00
2023-03-17T14:58:22.890Z,2.90
2023-03-17T15:08:24.280Z,2.78
2023-03-17T15:18:25.779Z,3.53
2023-03-17T15:28:26.994Z,3.58
2023-03-17T15:38:28.202Z,8.43
2023-03-17T15:48:32.666Z,3.53
2023-03-17T15:58:34.932Z,3.38
2023-03-17T16:08:37.544Z,2.78
2023-03-17T16:18:38.766Z,2.95
2023-03-17T16:28:40.101Z,3.50
2023-03-17T16:38:41.338Z,7.13
2023-03-17T16:48:42.693Z,8.73
2023-03-17T16:58:43.920Z,4.82
2023-03-17T17:08:45.248Z,11.63
2023-03-17T17:18:47.443Z,7.47
2023-03-17T17:28:48.730Z,4.50
2023-03-17T17:38:51.693Z,2.78
2023-03-17T17:48:52.937Z,4.35
2023-03-17T17:58:54.269Z,3.47
2023-03-17T18:08:55.534Z,7.72
2023-03-17T18:18:57.818Z,9.65
2023-03-17T18:28:59.044Z,3.35
2023-03-17T18:39:00.314Z,6.20
2023-03-17T18:49:01.642Z,8.10
2023-03-17T18:59:02.975Z,6.93
2023-03-17T19:09:04.237Z,4.93
2023-03-17T19:19:05.636Z,5.28
2023-03-17T19:29:09.679Z,5.57
2023-03-17T19:39:11.418Z,8.23
2023-03-17T19:49:12.714Z,11.40
2023-03-17T19:59:15.292Z,7.22
2023-03-17T20:09:17.005Z,6.47
2023-03-17T20:19:18.667Z,8.80
2023-03-17T20:29:19.936Z,7.22
2023-03-17T20:39:21.361Z,6.75
2023-03-17T20:49:23.377Z,7.78
2023-03-17T20:59:24.914Z,8.48
2023-03-17T21:09:26.161Z,8.00
2023-03-17T21:19:27.690Z,4.40
2023-03-17T21:29:28.892Z,3.47
2023-03-17T21:39:30.237Z,4.05
2023-03-17T21:49:32.176Z,3.40
2023-03-17T21:59:35.600Z,5.30
2023-03-17T22:09:37.499Z,6.93
2023-03-17T22:19:40.225Z,6.45
2023-03-17T22:29:41.469Z,5.30
2023-03-17T22:39:42.691Z,6.95
2023-03-17T22:49:43.917Z,7.18
2023-03-17T22:59:45.146Z,7.18
2023-03-17T23:09:46.490Z,6.95
2023-03-17T23:19:47.915Z,8.68
2023-03-17T23:29:49.180Z,7.32
2023-03-17T23:39:50.411Z,7.18
2023-03-17T23:49:51.660Z,5.88
2023-03-17T23:59:52.872Z,6.03
